createdAt,value
2023-02-14T00:02:19.469Z,49.90
2023-02-14T00:04:48.317Z,42.17
2023-02-14T00:07:16.812Z,43.80
2023-02-14T00:09:45.281Z,43.03
2023-02-14T00:12:13.657Z,41.60
2023-02-14T00:14:59.501Z,47.07
2023-02-14T00:17:29.511Z,39.93
2023-02-14T00:19:57.892Z,39.23
2023-02-14T00:22:26.319Z,41.67
2023-02-14T00:24:54.759Z,38.47
2023-02-14T00:27:23.246Z,36.37
2023-02-14T00:29:51.738Z,39.40
2023-02-14T00:32:20.220Z,44.03
2023-02-14T00:34:50.222Z,38.87
2023-02-14T00:37:18.680Z,35.70
2023-02-14T00:39:47.111Z,40.67
2023-02-14T00:42:16.410Z,37.23
2023-02-14T00:44:47.208Z,37.30
2023-02-14T00:47:15.610Z,38.53
2023-02-14T00:49:46.046Z,34.33
2023-02-14T00:52:15.852Z,38.17
2023-02-14T00:54:44.347Z,38.60
2023-02-14T00:57:13.085Z,36.63
2023-02-14T00:59:41.485Z,37.63
2023-02-14T01:02:10.181Z,37.27
2023-02-14T01:04:38.764Z,37.93
2023-02-14T01:07:08.174Z,39.43
2023-02-14T01:09:38.790Z,32.43
2023-02-14T01:12:07.736Z,30.87
2023-02-14T01:14:36.168Z,34.60
2023-02-14T01:17:04.586Z,33.23
2023-02-14T01:19:32.974Z,36.27
2023-02-14T01:22:01.870Z,35.47
2023-02-14T01:24:30.236Z,36.10
2023-02-14T01:27:01.491Z,30.90
2023-02-14T01:29:29.930Z,29.73
2023-02-14T01:31:58.626Z,33.10
2023-02-14T01:34:27.103Z,29.90
2023-02-14T01:36:55.706Z,34.10
2023-02-14T01:39:24.135Z,32.90
2023-02-14T01:41:54.260Z,33.40
2023-02-14T01:44:41.303Z,38.77
2023-02-14T01:47:12.272Z,35.70
2023-02-14T01:49:43.044Z,30.97
2023-02-14T01:52:14.210Z,30.17
2023-02-14T01:54:43.764Z,30.83
2023-02-14T01:57:14.215Z,28.53
2023-02-14T01:59:43.520Z,33.30
2023-02-14T02:02:13.668Z,31.73
2023-02-14T02:04:44.611Z,27.43
2023-02-14T02:07:16.932Z,33.33
2023-02-14T02:09:46.578Z,30.60
2023-02-14T02:12:15.266Z,30.57
2023-02-14T02:14:45.315Z,28.07
2023-02-14T02:17:20.530Z,28.20
2023-02-14T02:20:13.874Z,24.83
2023-02-14T02:22:56.410Z,24.37
2023-02-14T02:25:35.045Z,29.37
2023-02-14T02:28:19.367Z,28.37
2023-02-14T02:30:57.904Z,31.73
2023-02-14T02:33:43.014Z,31.57
2023-02-14T02:36:23.822Z,31.97
2023-02-14T02:39:02.342Z,32.73
2023-02-14T02:41:37.549Z,32.87
2023-02-14T02:44:13.117Z,34.20
2023-02-14T02:46:48.379Z,31.40
2023-02-14T02:49:40.409Z,31.13
2023-02-14T02:52:36.225Z,33.93
2023-02-14T02:55:06.629Z,32.50
2023-02-14T02:57:37.946Z,35.30
2023-02-14T03:00:08.176Z,32.80
2023-02-14T03:02:58.867Z,30.30
2023-02-14T03:05:28.090Z,31.20
2023-02-14T03:07:57.828Z,29.70
2023-02-14T03:10:28.315Z,32.83
2023-02-14T03:13:20.812Z,33.77
2023-02-14T03:16:10.516Z,25.90
2023-02-14T03:19:01.347Z,33.43
2023-02-14T03:21:33.209Z,27.83
2023-02-14T03:24:07.419Z,25.97
2023-02-14T03:26:37.428Z,28.77
2023-02-14T03:29:11.272Z,31.23
2023-02-14T03:31:45.300Z,29.17
2023-02-14T03:34:16.922Z,26.60
2023-02-14T03:36:49.716Z,28.70
2023-02-14T03:39:22.958Z,25.90
2023-02-14T03:41:53.753Z,26.27
2023-02-14T03:44:25.839Z,25.57
2023-02-14T03:46:56.828Z,24.40
2023-02-14T03:49:28.417Z,24.10
2023-02-14T03:51:57.970Z,23.07
2023-02-14T03:54:28.577Z,24.83
2023-02-14T03:56:59.591Z,24.70
2023-02-14T03:59:29.240Z,26.17
2023-02-14T04:02:01.561Z,24.20
2023-02-14T04:04:33.494Z,25.70
2023-02-14T04:07:02.080Z,24.07
2023-02-14T04:09:31.860Z,24.37
2023-02-14T04:12:00.314Z,24.03
2023-02-14T04:14:29.498Z,30.70
2023-02-14T04:17:15.731Z,28.20
2023-02-14T04:19:44.133Z,29.50
2023-02-14T04:22:12.582Z,23.57
2023-02-14T04:24:42.593Z,26.83
2023-02-14T04:27:11.797Z,27.00
2023-02-14T04:29:40.647Z,25.93
2023-02-14T04:32:10.541Z,29.03
2023-02-14T04:34:39.611Z,31.07
2023-02-14T04:37:08.055Z,34.37
2023-02-14T04:39:36.946Z,24.67
2023-02-14T04:42:07.306Z,25.10
2023-02-14T04:44:38.308Z,28.00
2023-02-14T04:47:07.263Z,32.30
2023-02-14T04:49:35.821Z,31.17
2023-02-14T04:52:04.584Z,26.77
2023-02-14T04:54:33.048Z,27.87
2023-02-14T04:57:01.580Z,28.93
2023-02-14T04:59:31.472Z,29.70
2023-02-14T05:02:00.086Z,29.80
2023-02-14T05:04:28.611Z,24.63
2023-02-14T05:06:57.560Z,30.20
2023-02-14T05:09:26.276Z,29.33
2023-02-14T05:11:54.668Z,26.53
2023-02-14T05:14:23.343Z,25.37
2023-02-14T05:16:53.102Z,29.60
2023-02-14T05:19:21.550Z,25.47
2023-02-14T05:21:49.969Z,24.37
2023-02-14T05:24:18.701Z,24.60
2023-02-14T05:26:47.751Z,23.87
2023-02-14T05:29:16.132Z,25.20
2023-02-14T05:31:44.554Z,22.50
2023-02-14T05:34:14.616Z,22.63
2023-02-14T05:36:44.134Z,24.77
2023-02-14T05:39:14.607Z,24.30
2023-02-14T05:41:43.096Z,23.57
2023-02-14T05:44:11.473Z,28.10
2023-02-14T05:46:39.931Z,27.27
2023-02-14T05:49:08.401Z,25.13
2023-02-14T05:51:38.796Z,26.07
2023-02-14T05:54:08.822Z,28.07
2023-02-14T05:56:39.375Z,27.40
2023-02-14T05:59:08.037Z,27.13
2023-02-14T06:01:36.515Z,29.43
2023-02-14T06:04:05.312Z,31.10
2023-02-14T06:06:36.891Z,33.73
2023-02-14T06:09:06.818Z,34.63
2023-02-14T06:11:35.476Z,32.47
2023-02-14T06:14:04.210Z,34.67
2023-02-14T06:16:33.314Z,29.13
2023-02-14T06:19:01.859Z,27.43
2023-02-14T06:21:30.642Z,29.40
2023-02-14T06:23:59.716Z,27.57
2023-02-14T06:26:29.892Z,29.33
2023-02-14T06:28:59.056Z,29.73
2023-02-14T06:31:27.648Z,33.13
2023-02-14T06:33:57.280Z,24.33
2023-02-14T06:36:25.896Z,29.67
2023-02-14T06:38:54.448Z,28.93
2023-02-14T06:41:23.205Z,35.10
2023-02-14T06:43:53.082Z,34.80
2023-02-14T06:46:21.998Z,35.00
2023-02-14T06:48:51.830Z,32.50
2023-02-14T06:51:20.424Z,26.90
2023-02-14T06:53:48.853Z,33.60
2023-02-14T06:56:18.075Z,26.40
2023-02-14T06:58:46.512Z,28.53
2023-02-14T07:01:16.365Z,26.00
2023-02-14T07:03:47.651Z,30.57
2023-02-14T07:06:16.145Z,26.57
2023-02-14T07:08:44.518Z,28.63
2023-02-14T07:11:13.054Z,28.13
2023-02-14T07:13:41.476Z,26.13
2023-02-14T07:16:09.908Z,26.80
2023-02-14T07:18:39.936Z,25.03
2023-02-14T07:21:08.483Z,23.40
2023-02-14T07:23:38.008Z,25.33
2023-02-14T07:26:06.774Z,27.53
2023-02-14T07:28:35.584Z,26.40
2023-02-14T07:31:04.583Z,21.57
2023-02-14T07:33:33.306Z,22.83
2023-02-14T07:36:05.776Z,25.57
2023-02-14T07:38:34.235Z,20.47
2023-02-14T07:41:03.026Z,21.37
2023-02-14T07:43:33.494Z,21.10
2023-02-14T07:46:02.456Z,19.53
2023-02-14T07:48:33.700Z,23.50
2023-02-14T07:51:04.417Z,19.77
2023-02-14T07:53:33.807Z,19.57
2023-02-14T07:56:02.637Z,18.60
2023-02-14T07:58:31.179Z,18.47
2023-02-14T08:01:00.438Z,19.17
2023-02-14T08:03:29.276Z,20.33
2023-02-14T08:06:00.806Z,18.40
2023-02-14T08:08:32.122Z,18.77
2023-02-14T08:11:01.437Z,18.97
2023-02-14T08:13:30.675Z,21.43
2023-02-14T08:16:09.756Z,19.47
2023-02-14T08:18:41.057Z,22.27
2023-02-14T08:21:10.418Z,21.33
2023-02-14T08:23:42.762Z,19.63
2023-02-14T08:26:11.297Z,20.30
2023-02-14T08:28:39.713Z,22.50
2023-02-14T08:31:08.938Z,18.70
2023-02-14T08:33:37.876Z,19.30
2023-02-14T08:36:07.460Z,21.80
2023-02-14T08:38:36.164Z,24.30
2023-02-14T08:41:08.814Z,20.63
2023-02-14T08:43:37.942Z,20.40
2023-02-14T08:46:06.568Z,17.73
2023-02-14T08:48:39.245Z,19.13
2023-02-14T08:51:08.339Z,18.00
2023-02-14T08:53:37.003Z,17.90
2023-02-14T08:56:07.870Z,16.07
2023-02-14T08:58:36.846Z,17.60
2023-02-14T09:01:09.775Z,20.53
2023-02-14T09:03:38.587Z,17.27
2023-02-14T09:06:08.378Z,16.70
2023-02-14T09:08:37.777Z,19.30
2023-02-14T09:11:11.766Z,15.97
2023-02-14T09:13:41.812Z,19.17
2023-02-14T09:16:11.674Z,17.30
2023-02-14T09:18:40.159Z,21.27
2023-02-14T09:21:10.028Z,18.80
2023-02-14T09:23:38.500Z,17.73
2023-02-14T09:26:07.579Z,19.57
2023-02-14T09:28:38.457Z,16.50
2023-02-14T09:31:11.877Z,17.90
2023-02-14T09:33:58.879Z,16.63
2023-02-14T09:36:44.954Z,15.97
2023-02-14T09:39:13.421Z,14.83
2023-02-14T09:41:52.894Z,16.17
2023-02-14T09:44:26.461Z,13.73
2023-02-14T09:46:57.233Z,15.57
2023-02-14T09:49:32.445Z,17.53
2023-02-14T09:52:03.128Z,15.77
2023-02-14T09:54:34.729Z,14.33
2023-02-14T09:57:06.999Z,16.50
2023-02-14T09:59:39.377Z,15.30
2023-02-14T10:02:18.476Z,14.07
2023-02-14T10:04:55.498Z,15.13
2023-02-14T10:07:26.995Z,14.73
2023-02-14T10:10:00.658Z,14.90
2023-02-14T10:12:31.690Z,14.07
2023-02-14T10:15:02.761Z,15.23
2023-02-14T10:17:38.445Z,13.83
2023-02-14T10:20:13.462Z,14.97
2023-02-14T10:22:43.774Z,13.53
2023-02-14T10:25:19.109Z,14.03
2023-02-14T10:27:48.268Z,14.00
2023-02-14T10:30:19.123Z,14.67
2023-02-14T10:32:48.483Z,16.40
2023-02-14T10:35:22.431Z,18.90
2023-02-14T10:37:57.207Z,18.47
2023-02-14T10:40:34.818Z,14.53
2023-02-14T10:43:08.220Z,16.87
2023-02-14T10:45:39.999Z,16.10
2023-02-14T10:48:15.308Z,15.33
2023-02-14T10:50:48.740Z,15.33
2023-02-14T10:53:20.829Z,15.60
2023-02-14T10:55:55.050Z,17.53
2023-02-14T10:58:25.057Z,19.47
2023-02-14T11:00:57.309Z,20.33
2023-02-14T11:03:25.826Z,17.40
2023-02-14T11:05:54.338Z,16.83
2023-02-14T11:08:28.687Z,19.57
2023-02-14T11:11:01.967Z,18.57
2023-02-14T11:13:32.602Z,19.80
2023-02-14T11:16:03.830Z,19.17
2023-02-14T11:18:37.478Z,18.23
2023-02-14T11:21:10.134Z,17.80
2023-02-14T11:23:40.381Z,17.63
2023-02-14T11:26:16.512Z,19.77
2023-02-14T11:28:51.436Z,16.90
2023-02-14T11:31:28.647Z,18.30
2023-02-14T11:33:57.389Z,17.37
2023-02-14T11:36:27.396Z,18.50
2023-02-14T11:39:03.673Z,17.77
2023-02-14T11:41:47.204Z,16.30
2023-02-14T11:44:22.319Z,18.47
2023-02-14T11:46:55.884Z,16.57
2023-02-14T11:49:28.319Z,19.17
2023-02-14T11:52:00.932Z,19.23
2023-02-14T11:54:36.192Z,19.53
2023-02-14T11:57:14.888Z,19.87
2023-02-14T11:59:45.891Z,19.87
2023-02-14T12:02:28.329Z,18.40
2023-02-14T12:04:58.650Z,18.70
2023-02-14T12:07:29.172Z,20.13
2023-02-14T12:10:24.859Z,22.37
2023-02-14T12:12:54.855Z,22.77
2023-02-14T12:15:34.820Z,22.73
2023-02-14T12:18:23.996Z,24.23
2023-02-14T12:20:56.030Z,23.93
2023-02-14T12:23:28.064Z,26.00
2023-02-14T12:25:59.694Z,24.63
2023-02-14T12:28:32.033Z,23.77
2023-02-14T12:31:00.736Z,23.70
2023-02-14T12:33:32.094Z,23.63
2023-02-14T12:36:04.716Z,23.77
2023-02-14T12:38:40.465Z,23.40
2023-02-14T12:41:16.705Z,25.10
2023-02-14T12:43:50.847Z,22.17
2023-02-14T12:46:37.726Z,23.40
2023-02-14T12:49:22.521Z,20.90
2023-02-14T12:51:56.114Z,20.57
2023-02-14T12:54:33.513Z,20.10
2023-02-14T12:57:06.503Z,20.47
2023-02-14T12:59:42.403Z,21.00
2023-02-14T13:02:38.190Z,19.40
2023-02-14T13:05:14.808Z,22.00
2023-02-14T13:07:49.952Z,22.63
2023-02-14T13:10:25.372Z,22.47
2023-02-14T13:13:00.686Z,22.97
2023-02-14T13:15:32.599Z,23.40
2023-02-14T13:18:05.135Z,26.53
2023-02-14T13:20:38.722Z,23.03
2023-02-14T13:23:13.675Z,23.20
2023-02-14T13:25:48.986Z,22.60
2023-02-14T13:28:18.108Z,22.53
2023-02-14T13:30:46.614Z,24.80
2023-02-14T13:33:36.457Z,22.90
2023-02-14T13:36:07.806Z,23.50
2023-02-14T13:38:40.389Z,23.73
2023-02-14T13:41:09.541Z,22.53
2023-02-14T13:43:48.180Z,26.30
2023-02-14T13:46:17.990Z,23.57
2023-02-14T13:48:57.165Z,23.53
2023-02-14T13:51:44.730Z,25.37
2023-02-14T13:54:24.338Z,25.57
2023-02-14T13:56:53.068Z,25.00
2023-02-14T13:59:29.129Z,24.37
2023-02-14T14:01:57.777Z,24.60
2023-02-14T14:04:36.347Z,25.60
2023-02-14T14:07:19.837Z,26.27
2023-02-14T14:09:57.035Z,23.30
2023-02-14T14:12:45.008Z,24.20
2023-02-14T14:15:22.733Z,24.67
2023-02-14T14:18:11.917Z,24.30
2023-02-14T14:20:43.830Z,23.90
2023-02-14T14:23:31.989Z,24.27
2023-02-14T14:26:02.369Z,23.63
2023-02-14T14:28:34.003Z,24.10
2023-02-14T14:31:02.722Z,24.37
2023-02-14T14:33:32.084Z,23.27
2023-02-14T14:36:02.848Z,22.33
2023-02-14T14:38:32.236Z,24.27
2023-02-14T14:41:03.995Z,22.90
2023-02-14T14:43:33.278Z,21.83
2023-02-14T14:46:03.236Z,22.03
2023-02-14T14:48:32.904Z,22.63
2023-02-14T14:51:02.343Z,23.17
2023-02-14T14:53:34.224Z,23.53
2023-02-14T14:56:05.382Z,22.73
2023-02-14T14:58:41.035Z,24.43
2023-02-14T15:01:16.436Z,25.10
2023-02-14T15:03:46.048Z,24.13
2023-02-14T15:06:17.746Z,24.83
2023-02-14T15:08:46.655Z,24.50
2023-02-14T15:11:38.046Z,26.27
2023-02-14T15:14:06.536Z,24.07
2023-02-14T15:16:40.270Z,23.73
2023-02-14T15:19:10.862Z,21.93
2023-02-14T15:21:44.637Z,21.63
2023-02-14T15:24:15.378Z,24.10
2023-02-14T15:26:46.825Z,23.43
2023-02-14T15:29:21.899Z,23.67
2023-02-14T15:31:51.316Z,26.07
2023-02-14T15:34:21.203Z,23.53
2023-02-14T15:36:54.264Z,23.10
2023-02-14T15:39:25.616Z,24.10
2023-02-14T15:41:56.635Z,25.93
2023-02-14T15:44:26.030Z,25.27
2023-02-14T15:46:56.199Z,27.47
2023-02-14T15:49:26.324Z,26.53
2023-02-14T15:51:55.053Z,26.13
2023-02-14T15:54:27.169Z,25.80
2023-02-14T15:56:58.795Z,27.00
2023-02-14T15:59:29.706Z,24.83
2023-02-14T16:01:59.513Z,27.27
2023-02-14T16:04:29.325Z,26.23
2023-02-14T16:07:10.175Z,24.83
2023-02-14T16:09:39.746Z,27.03
2023-02-14T16:12:36.585Z,26.13
2023-02-14T16:15:12.261Z,25.87
2023-02-14T16:17:42.097Z,27.20
2023-02-14T16:20:29.298Z,26.47
2023-02-14T16:23:17.230Z,27.33
2023-02-14T16:25:45.921Z,27.60
2023-02-14T16:28:14.847Z,28.47
2023-02-14T16:30:46.063Z,27.83
2023-02-14T16:33:15.860Z,27.63
2023-02-14T16:35:44.359Z,27.20
2023-02-14T16:38:16.084Z,25.87
2023-02-14T16:40:45.826Z,25.00
2023-02-14T16:43:15.256Z,26.23
2023-02-14T16:45:45.044Z,25.90
2023-02-14T16:48:15.840Z,27.00
2023-02-14T16:50:44.480Z,24.97
2023-02-14T16:53:22.402Z,26.43
2023-02-14T16:55:50.919Z,26.77
2023-02-14T16:58:20.198Z,27.30
2023-02-14T17:00:49.911Z,28.53
2023-02-14T17:03:19.198Z,28.73
2023-02-14T17:05:48.022Z,27.67
2023-02-14T17:08:17.096Z,28.43
2023-02-14T17:10:48.651Z,30.57
2023-02-14T17:13:19.159Z,27.53
2023-02-14T17:15:47.967Z,28.83
2023-02-14T17:18:19.572Z,30.20
2023-02-14T17:20:48.046Z,33.07
2023-02-14T17:23:16.832Z,35.53
2023-02-14T17:25:45.229Z,28.70
2023-02-14T17:28:13.894Z,28.10
2023-02-14T17:30:42.301Z,27.50
2023-02-14T17:33:10.994Z,29.83
2023-02-14T17:35:40.774Z,32.17
2023-02-14T17:38:09.382Z,32.67
2023-02-14T17:40:37.842Z,28.50
2023-02-14T17:43:06.254Z,28.17
2023-02-14T17:45:34.621Z,26.87
2023-02-14T17:48:03.424Z,30.57
2023-02-14T17:50:31.839Z,28.00
2023-02-14T17:53:01.587Z,28.20
2023-02-14T17:55:30.087Z,29.53
2023-02-14T17:57:58.482Z,27.17
2023-02-14T18:00:26.887Z,33.37
2023-02-14T18:02:55.369Z,27.00
2023-02-14T18:05:23.760Z,35.07
2023-02-14T18:07:52.835Z,32.70
2023-02-14T18:10:22.731Z,36.80
2023-02-14T18:12:51.118Z,37.10
2023-02-14T18:15:19.870Z,39.90
2023-02-14T18:17:50.728Z,32.63
2023-02-14T18:20:19.289Z,36.53
2023-02-14T18:22:47.661Z,33.30
2023-02-14T18:25:16.092Z,29.63
2023-02-14T18:27:45.856Z,29.23
2023-02-14T18:30:14.702Z,32.80
2023-02-14T18:32:43.136Z,33.90
2023-02-14T18:35:12.027Z,33.83
2023-02-14T18:37:41.476Z,33.30
2023-02-14T18:40:11.447Z,34.30
2023-02-14T18:42:39.920Z,34.83
2023-02-14T18:45:10.522Z,36.33
2023-02-14T18:47:38.960Z,32.03
2023-02-14T18:50:08.246Z,35.90
2023-02-14T18:52:37.435Z,37.23
2023-02-14T18:55:06.366Z,34.33
2023-02-14T18:57:35.423Z,31.50
2023-02-14T19:00:06.835Z,31.17
2023-02-14T19:02:37.261Z,32.17
2023-02-14T19:05:05.820Z,27.93
2023-02-14T19:07:35.738Z,40.17
2023-02-14T19:10:04.518Z,34.23
2023-02-14T19:12:33.239Z,39.73
2023-02-14T19:15:01.965Z,42.63
2023-02-14T19:17:30.449Z,39.70
2023-02-14T19:20:01.246Z,36.47
2023-02-14T19:22:29.686Z,30.97
2023-02-14T19:24:58.389Z,29.23
2023-02-14T19:27:26.879Z,29.10
2023-02-14T19:29:55.465Z,34.23
2023-02-14T19:32:24.433Z,29.70
2023-02-14T19:34:53.320Z,28.00
2023-02-14T19:37:23.795Z,36.10
2023-02-14T19:39:52.478Z,36.93
2023-02-14T19:42:21.187Z,30.07
2023-02-14T19:44:49.885Z,33.87
2023-02-14T19:47:29.010Z,33.90
2023-02-14T19:50:02.195Z,26.37
2023-02-14T19:52:32.227Z,28.87
2023-02-14T19:55:00.669Z,27.30
2023-02-14T19:57:29.297Z,31.53
2023-02-14T19:59:57.714Z,29.43
2023-02-14T20:02:26.266Z,25.67
2023-02-14T20:04:58.941Z,30.87
2023-02-14T20:07:27.600Z,31.37
2023-02-14T20:09:57.308Z,30.50
2023-02-14T20:12:25.806Z,23.67
2023-02-14T20:14:56.545Z,29.47
2023-02-14T20:17:25.583Z,27.90
2023-02-14T20:19:58.501Z,25.43
2023-02-14T20:22:26.930Z,28.10
2023-02-14T20:24:56.706Z,28.50
2023-02-14T20:27:26.039Z,27.70
2023-02-14T20:29:55.324Z,23.27
2023-02-14T20:32:23.776Z,28.03
2023-02-14T20:34:52.766Z,28.27
2023-02-14T20:37:21.168Z,26.67
2023-02-14T20:39:49.736Z,32.77
2023-02-14T20:42:19.744Z,30.20
2023-02-14T20:44:48.140Z,26.57
2023-02-14T20:47:17.095Z,22.17
2023-02-14T20:49:45.832Z,31.00
2023-02-14T20:52:14.443Z,25.07
2023-02-14T20:54:43.072Z,25.07
2023-02-14T20:57:11.548Z,25.13
2023-02-14T20:59:44.743Z,22.50
2023-02-14T21:02:13.142Z,21.53
2023-02-14T21:04:41.723Z,24.47
2023-02-14T21:07:10.734Z,25.07
2023-02-14T21:09:39.125Z,24.03
2023-02-14T21:12:08.219Z,28.13
2023-02-14T21:14:36.651Z,21.67
2023-02-14T21:17:06.650Z,35.03
2023-02-14T21:19:35.210Z,28.53
2023-02-14T21:22:04.339Z,28.07
2023-02-14T21:24:32.707Z,27.33
2023-02-14T21:27:01.848Z,30.23
2023-02-14T21:29:30.210Z,33.20
2023-02-14T21:32:00.059Z,29.03
2023-02-14T21:34:31.786Z,32.03
2023-02-14T21:37:00.185Z,27.30
2023-02-14T21:39:30.926Z,20.47
2023-02-14T21:42:01.002Z,29.33
2023-02-14T21:44:47.432Z,25.33
2023-02-14T21:47:15.829Z,22.67
2023-02-14T21:50:03.509Z,31.97
2023-02-14T21:52:32.247Z,23.70
2023-02-14T21:55:00.612Z,27.60
2023-02-14T21:57:29.117Z,27.30
2023-02-14T21:59:58.013Z,22.30
2023-02-14T22:02:26.777Z,24.87
2023-02-14T22:04:56.793Z,30.03
2023-02-14T22:07:25.192Z,26.20
2023-02-14T22:09:53.639Z,20.50
2023-02-14T22:12:21.990Z,23.60
2023-02-14T22:14:50.987Z,26.50
2023-02-14T22:17:19.603Z,24.63
2023-02-14T22:19:48.679Z,20.70
2023-02-14T22:22:18.928Z,19.43
2023-02-14T22:24:47.382Z,27.67
2023-02-14T22:27:16.950Z,26.00
2023-02-14T22:29:45.498Z,27.10
2023-02-14T22:32:13.965Z,27.27
2023-02-14T22:34:42.893Z,19.30
2023-02-14T22:37:11.552Z,22.40
2023-02-14T22:39:41.781Z,20.17
2023-02-14T22:42:10.405Z,21.33
2023-02-14T22:44:38.857Z,21.00
2023-02-14T22:47:08.627Z,23.53
2023-02-14T22:49:36.959Z,25.30
2023-02-14T22:52:05.625Z,28.67
2023-02-14T22:54:34.078Z,23.40
2023-02-14T22:57:03.838Z,26.80
2023-02-14T22:59:33.311Z,29.73
2023-02-14T23:02:02.434Z,25.57
2023-02-14T23:04:30.932Z,28.27
2023-02-14T23:06:59.530Z,22.40
2023-02-14T23:09:28.284Z,22.83
2023-02-14T23:11:57.010Z,21.13
2023-02-14T23:14:44.153Z,22.03
2023-02-14T23:17:38.315Z,19.67
2023-02-14T23:20:24.773Z,19.43
2023-02-14T23:22:53.121Z,24.60
2023-02-14T23:25:21.558Z,19.87
2023-02-14T23:27:49.904Z,22.57
2023-02-14T23:30:20.402Z,16.47
2023-02-14T23:32:48.990Z,19.17
2023-02-14T23:35:17.644Z,18.67
2023-02-14T23:37:46.357Z,26.60
2023-02-14T23:40:15.125Z,25.70
2023-02-14T23:42:43.506Z,23.50
2023-02-14T23:45:30.052Z,18.43
2023-02-14T23:48:02.724Z,20.50
2023-02-14T23:50:31.087Z,20.50
2023-02-14T23:52:59.455Z,26.47
2023-02-14T23:55:27.915Z,33.33
2023-02-14T23:57:56.385Z,20.63
